createdAt,value
2022-10-22T00:00:07.010Z,16.86
2022-10-22T00:02:35.065Z,16.97
2022-10-22T00:05:05.413Z,16.94
2022-10-22T00:07:33.836Z,16.90
2022-10-22T00:10:02.027Z,16.73
2022-10-22T00:12:29.998Z,16.95
2022-10-22T00:14:58.490Z,17.09
2022-10-22T00:17:26.514Z,17.11
2022-10-22T00:19:54.173Z,17.20
2022-10-22T00:22:23.869Z,17.16
2022-10-22T00:24:51.496Z,17.16
2022-10-22T00:27:19.781Z,16.98
2022-10-22T00:29:49.281Z,17.05
2022-10-22T00:32:17.570Z,16.98
2022-10-22T00:34:45.423Z,17.14
2022-10-22T00:37:13.727Z,17.21
2022-10-22T00:39:42.979Z,17.15
2022-10-22T00:42:18.529Z,17.14
2022-10-22T00:45:15.036Z,17.13
2022-10-22T00:47:46.013Z,16.90
2022-10-22T00:50:16.923Z,16.91
2022-10-22T00:52:45.651Z,16.71
2022-10-22T00:55:16.033Z,16.60
2022-10-22T00:57:45.018Z,16.48
2022-10-22T01:00:13.632Z,16.49
2022-10-22T01:02:42.304Z,16.30
2022-10-22T01:05:11.221Z,16.61
2022-10-22T01:07:43.402Z,16.55
2022-10-22T01:10:25.727Z,16.47
2022-10-22T01:13:07.294Z,16.76
2022-10-22T01:15:42.728Z,16.95
2022-10-22T01:18:16.923Z,16.98
2022-10-22T01:21:09.469Z,16.95
2022-10-22T01:24:12.651Z,16.88
2022-10-22T01:26:57.938Z,16.47
2022-10-22T01:29:30.340Z,16.31
2022-10-22T01:32:01.957Z,16.51
2022-10-22T01:34:32.013Z,16.34
2022-10-22T01:37:01.359Z,15.98
2022-10-22T01:39:31.929Z,15.51
2022-10-22T01:41:59.561Z,15.71
2022-10-22T01:44:30.346Z,15.33
2022-10-22T01:47:08.138Z,15.33
2022-10-22T01:49:48.818Z,15.10
2022-10-22T01:52:28.662Z,15.22
2022-10-22T01:55:19.331Z,15.50
2022-10-22T01:57:54.847Z,15.60
2022-10-22T02:00:24.262Z,15.49
2022-10-22T02:02:59.469Z,15.36
2022-10-22T02:05:33.422Z,15.31
2022-10-22T02:08:05.522Z,15.26
2022-10-22T02:10:33.651Z,15.46
2022-10-22T02:13:04.186Z,15.77
2022-10-22T02:15:36.359Z,15.82
2022-10-22T02:18:07.694Z,15.62
2022-10-22T02:20:38.143Z,15.77
2022-10-22T02:23:06.805Z,15.72
2022-10-22T02:25:40.690Z,15.91
2022-10-22T02:28:15.839Z,15.79
2022-10-22T02:30:49.791Z,16.01
2022-10-22T02:33:21.929Z,16.00
2022-10-22T02:35:52.803Z,15.97
2022-10-22T02:38:21.047Z,16.00
2022-10-22T02:40:49.125Z,16.06
2022-10-22T02:43:18.376Z,15.96
2022-10-22T02:45:48.295Z,16.05
2022-10-22T02:48:15.971Z,16.14
2022-10-22T02:50:43.942Z,16.13
2022-10-22T02:53:11.578Z,16.09
2022-10-22T02:55:39.469Z,16.20
2022-10-22T02:58:07.117Z,16.09
2022-10-22T03:00:34.879Z,15.98
2022-10-22T03:03:03.934Z,15.84
2022-10-22T03:05:31.858Z,15.92
2022-10-22T03:07:59.513Z,15.84
2022-10-22T03:10:27.500Z,15.87
2022-10-22T03:12:56.052Z,15.86
2022-10-22T03:15:24.071Z,15.85
2022-10-22T03:17:51.717Z,15.94
2022-10-22T03:20:21.341Z,15.94
2022-10-22T03:22:49.179Z,15.99
2022-10-22T03:25:20.928Z,15.99
2022-10-22T03:27:50.655Z,15.95
2022-10-22T03:30:18.918Z,15.96
2022-10-22T03:32:46.698Z,16.06
2022-10-22T03:35:14.353Z,15.94
2022-10-22T03:37:43.817Z,16.06
2022-10-22T03:40:13.223Z,16.06
2022-10-22T03:42:42.527Z,16.12
2022-10-22T03:45:11.382Z,16.00
2022-10-22T03:47:39.281Z,16.02
2022-10-22T03:50:08.910Z,15.97
2022-10-22T03:52:38.225Z,15.97
2022-10-22T03:55:09.526Z,15.98
2022-10-22T03:57:37.363Z,15.95
2022-10-22T04:00:07.156Z,15.81
2022-10-22T04:02:34.753Z,15.96
2022-10-22T04:05:02.767Z,15.84
2022-10-22T04:07:30.895Z,15.93
2022-10-22T04:09:58.522Z,15.59
2022-10-22T04:12:27.609Z,15.84
2022-10-22T04:14:55.250Z,15.77
2022-10-22T04:17:22.937Z,15.53
2022-10-22T04:19:50.562Z,15.74
2022-10-22T04:22:18.538Z,15.60
2022-10-22T04:24:46.191Z,15.77
2022-10-22T04:27:14.717Z,15.68
2022-10-22T04:29:43.698Z,15.63
2022-10-22T04:32:11.999Z,15.59
2022-10-22T04:34:39.612Z,15.60
2022-10-22T04:37:07.525Z,15.63
2022-10-22T04:39:35.156Z,15.52
2022-10-22T04:42:03.826Z,15.64
2022-10-22T04:44:31.631Z,15.47
2022-10-22T04:47:00.807Z,15.52
2022-10-22T04:49:28.587Z,15.59
2022-10-22T04:51:56.714Z,15.55
2022-10-22T04:54:26.618Z,15.45
2022-10-22T04:56:57.275Z,15.41
2022-10-22T04:59:24.906Z,15.50
2022-10-22T05:01:52.546Z,15.42
2022-10-22T05:04:21.583Z,15.46
2022-10-22T05:06:49.579Z,15.41
2022-10-22T05:09:19.237Z,15.56
2022-10-22T05:11:49.222Z,15.53
2022-10-22T05:14:18.463Z,15.48
2022-10-22T05:16:48.754Z,15.44
2022-10-22T05:19:19.883Z,15.35
2022-10-22T05:21:49.099Z,15.34
2022-10-22T05:24:17.098Z,15.34
2022-10-22T05:26:45.145Z,15.34
2022-10-22T05:29:12.762Z,15.31
2022-10-22T05:31:41.127Z,15.28
2022-10-22T05:34:08.765Z,15.50
2022-10-22T05:36:36.539Z,15.50
2022-10-22T05:39:06.126Z,15.33
2022-10-22T05:41:35.596Z,15.28
2022-10-22T05:44:03.948Z,15.47
2022-10-22T05:46:35.335Z,15.08
2022-10-22T05:49:05.400Z,15.51
2022-10-22T05:51:35.462Z,15.63
2022-10-22T05:54:06.355Z,15.16
2022-10-22T05:56:35.693Z,15.44
2022-10-22T06:01:36.362Z,15.52
2022-10-22T06:04:06.500Z,15.42
2022-10-22T06:06:36.536Z,15.62
2022-10-22T06:09:08.461Z,15.61
2022-10-22T06:11:36.900Z,15.67
2022-10-22T06:14:04.954Z,15.67
2022-10-22T06:16:33.138Z,15.68
2022-10-22T06:19:01.863Z,15.38
2022-10-22T06:21:30.286Z,15.21
2022-10-22T06:23:59.122Z,15.22
2022-10-22T06:26:28.528Z,15.34
2022-10-22T06:28:57.012Z,15.35
2022-10-22T06:31:24.947Z,15.49
2022-10-22T06:33:52.618Z,15.55
2022-10-22T06:36:25.289Z,15.54
2022-10-22T06:38:53.949Z,15.43
2022-10-22T06:41:25.645Z,15.17
2022-10-22T06:43:58.605Z,15.25
2022-10-22T06:46:26.782Z,15.37
2022-10-22T06:48:56.739Z,15.43
2022-10-22T06:51:24.513Z,15.56
2022-10-22T06:53:52.414Z,15.50
2022-10-22T06:56:23.032Z,15.58
2022-10-22T06:58:52.001Z,15.82
2022-10-22T07:01:23.555Z,15.90
2022-10-22T07:03:52.418Z,15.90
2022-10-22T07:06:21.597Z,16.08
2022-10-22T07:08:49.324Z,16.11
2022-10-22T07:11:19.262Z,16.00
2022-10-22T07:13:47.706Z,16.01
2022-10-22T07:16:16.481Z,16.31
2022-10-22T07:18:46.505Z,16.21
2022-10-22T07:21:17.333Z,16.45
2022-10-22T07:23:45.637Z,16.37
2022-10-22T07:26:16.446Z,16.55
2022-10-22T07:28:44.528Z,16.60
2022-10-22T07:31:14.717Z,16.66
2022-10-22T07:33:42.482Z,16.77
2022-10-22T07:36:17.984Z,16.84
2022-10-22T07:38:46.605Z,16.96
2022-10-22T07:41:14.878Z,17.04
2022-10-22T07:43:42.667Z,17.14
2022-10-22T07:46:10.337Z,17.14
2022-10-22T07:48:39.028Z,17.11
2022-10-22T07:51:07.564Z,17.00
2022-10-22T07:53:36.721Z,17.10
2022-10-22T07:56:04.598Z,17.02
2022-10-22T07:58:32.613Z,17.22
2022-10-22T08:01:01.883Z,17.54
2022-10-22T08:03:30.402Z,17.56
2022-10-22T08:05:58.369Z,17.57
2022-10-22T08:08:29.751Z,17.47
2022-10-22T08:11:01.644Z,17.23
2022-10-22T08:13:30.470Z,17.37
2022-10-22T08:15:59.197Z,17.36
2022-10-22T08:18:27.313Z,17.51
2022-10-22T08:20:55.624Z,17.54
2022-10-22T08:23:27.455Z,17.61
2022-10-22T08:25:57.095Z,17.69
2022-10-22T08:28:28.628Z,17.79
2022-10-22T08:30:56.830Z,17.95
2022-10-22T08:33:24.490Z,17.76
2022-10-22T08:35:53.477Z,17.90
2022-10-22T08:38:21.749Z,18.06
2022-10-22T08:40:52.691Z,17.85
2022-10-22T08:43:38.959Z,18.11
2022-10-22T08:46:19.605Z,18.00
2022-10-22T08:48:50.583Z,18.22
2022-10-22T08:51:21.799Z,17.98
2022-10-22T08:54:20.069Z,18.07
2022-10-22T08:56:57.659Z,18.23
2022-10-22T08:59:34.275Z,18.38
2022-10-22T09:02:04.412Z,18.46
2022-10-22T09:04:38.975Z,18.63
2022-10-22T09:07:06.669Z,18.68
2022-10-22T09:09:41.787Z,18.65
2022-10-22T09:12:20.192Z,18.86
2022-10-22T09:14:50.025Z,18.73
2022-10-22T09:17:26.471Z,18.77
2022-10-22T09:20:03.775Z,18.90
2022-10-22T09:22:39.632Z,18.65
2022-10-22T09:25:20.534Z,18.85
2022-10-22T09:27:49.353Z,18.87
2022-10-22T09:30:20.847Z,19.03
2022-10-22T09:32:55.513Z,18.98
2022-10-22T09:35:25.205Z,19.59
2022-10-22T09:37:56.221Z,19.65
2022-10-22T09:40:24.784Z,19.86
2022-10-22T09:42:52.662Z,20.00
2022-10-22T09:45:26.644Z,20.12
2022-10-22T09:48:11.401Z,20.13
2022-10-22T09:50:43.997Z,20.24
2022-10-22T09:53:19.989Z,20.15
2022-10-22T09:55:53.008Z,19.57
2022-10-22T09:58:20.991Z,19.68
2022-10-22T10:00:54.626Z,19.57
2022-10-22T10:03:25.275Z,19.73
2022-10-22T10:05:56.325Z,20.05
2022-10-22T10:08:25.394Z,20.12
2022-10-22T10:10:57.565Z,20.32
2022-10-22T10:13:39.391Z,21.08
2022-10-22T10:16:17.268Z,22.36
2022-10-22T10:19:02.499Z,22.12
2022-10-22T10:21:38.000Z,22.64
2022-10-22T10:24:14.591Z,22.00
2022-10-22T10:26:50.856Z,22.84
2022-10-22T10:29:32.446Z,23.52
2022-10-22T10:32:32.177Z,23.45
2022-10-22T10:35:10.494Z,22.62
2022-10-22T10:37:46.274Z,22.75
2022-10-22T10:40:25.207Z,23.26
2022-10-22T10:42:59.774Z,22.75
2022-10-22T10:45:34.051Z,21.55
2022-10-22T10:48:13.533Z,21.95
2022-10-22T10:50:52.782Z,21.41
2022-10-22T10:53:30.746Z,20.57
2022-10-22T10:56:05.108Z,20.06
2022-10-22T10:58:45.208Z,20.34
2022-10-22T11:01:21.444Z,20.27
2022-10-22T11:04:14.320Z,19.76
2022-10-22T11:06:44.151Z,20.33
2022-10-22T11:09:23.564Z,20.27
2022-10-22T11:11:54.966Z,19.53
2022-10-22T11:14:29.977Z,19.35
2022-10-22T11:17:02.851Z,19.38
2022-10-22T11:19:57.853Z,19.85
2022-10-22T11:22:30.810Z,19.99
2022-10-22T11:25:04.573Z,20.20
2022-10-22T11:27:38.642Z,20.06
2022-10-22T11:30:13.602Z,20.48
2022-10-22T11:32:45.307Z,21.33
2022-10-22T11:35:23.482Z,21.08
2022-10-22T11:37:56.084Z,21.52
2022-10-22T11:40:33.870Z,21.98
2022-10-22T11:43:06.322Z,21.85
2022-10-22T11:45:37.262Z,21.46
2022-10-22T11:48:19.334Z,20.63
2022-10-22T11:50:53.075Z,20.05
2022-10-22T11:53:31.861Z,20.57
2022-10-22T11:56:05.889Z,20.41
2022-10-22T11:58:42.134Z,20.21
2022-10-22T12:01:24.550Z,19.87
2022-10-22T12:03:53.485Z,20.38
2022-10-22T12:06:25.181Z,20.36
2022-10-22T12:08:59.763Z,20.25
2022-10-22T12:11:30.535Z,20.68
2022-10-22T12:14:04.846Z,20.87
2022-10-22T12:16:56.549Z,21.23
2022-10-22T12:19:31.805Z,21.47
2022-10-22T12:22:12.027Z,21.65
2022-10-22T12:24:42.625Z,21.71
2022-10-22T12:27:22.421Z,20.70
2022-10-22T12:29:55.402Z,20.49
2022-10-22T12:32:24.227Z,20.09
2022-10-22T12:34:53.830Z,19.70
2022-10-22T12:37:23.409Z,20.15
2022-10-22T12:39:52.297Z,20.09
2022-10-22T12:42:22.293Z,20.20
2022-10-22T12:44:55.308Z,20.52
2022-10-22T12:47:23.502Z,20.70
2022-10-22T12:49:51.793Z,20.84
2022-10-22T12:52:22.757Z,20.53
2022-10-22T12:54:54.728Z,20.47
2022-10-22T12:57:24.652Z,20.14
2022-10-22T12:59:52.915Z,20.00
2022-10-22T13:02:24.306Z,20.30
2022-10-22T13:05:16.748Z,20.31
2022-10-22T13:07:48.453Z,20.16
2022-10-22T13:10:20.652Z,20.06
2022-10-22T13:12:55.389Z,19.92
2022-10-22T13:15:34.446Z,20.19
2022-10-22T13:18:07.991Z,20.98
2022-10-22T13:20:37.360Z,20.58
2022-10-22T13:23:06.874Z,20.49
2022-10-22T13:25:38.900Z,21.17
2022-10-22T13:28:20.576Z,20.89
2022-10-22T13:30:55.027Z,20.82
2022-10-22T13:33:26.586Z,20.96
2022-10-22T13:35:56.011Z,20.40
2022-10-22T13:38:25.352Z,20.27
2022-10-22T13:40:55.650Z,20.35
2022-10-22T13:43:23.324Z,20.65
2022-10-22T13:45:55.462Z,20.86
2022-10-22T13:48:26.072Z,20.85
2022-10-22T13:50:54.959Z,20.32
2022-10-22T13:53:24.983Z,20.46
2022-10-22T13:55:56.398Z,21.00
2022-10-22T13:58:25.486Z,20.92
2022-10-22T14:00:57.878Z,20.98
2022-10-22T14:03:29.125Z,20.89
2022-10-22T14:05:57.376Z,20.71
2022-10-22T14:08:26.858Z,20.67
2022-10-22T14:10:56.614Z,20.52
2022-10-22T14:13:24.594Z,20.62
2022-10-22T14:15:53.558Z,20.21
2022-10-22T14:18:26.341Z,20.57
2022-10-22T14:20:56.082Z,20.27
2022-10-22T14:23:26.493Z,20.76
2022-10-22T14:25:56.605Z,20.91
2022-10-22T14:28:24.294Z,20.85
2022-10-22T14:30:53.261Z,20.50
2022-10-22T14:33:29.025Z,20.52
2022-10-22T14:36:00.116Z,20.63
2022-10-22T14:38:28.367Z,20.52
2022-10-22T14:40:58.371Z,20.35
2022-10-22T14:43:28.426Z,20.29
2022-10-22T14:45:56.714Z,20.40
2022-10-22T14:48:24.775Z,20.04
2022-10-22T14:50:53.036Z,20.37
2022-10-22T14:53:20.761Z,20.33
2022-10-22T14:55:49.619Z,20.50
2022-10-22T14:58:18.646Z,20.48
2022-10-22T15:00:46.692Z,20.35
2022-10-22T15:03:14.388Z,20.31
2022-10-22T15:05:44.313Z,20.42
2022-10-22T15:08:13.041Z,20.70
2022-10-22T15:10:41.604Z,20.94
2022-10-22T15:13:09.388Z,21.07
2022-10-22T15:15:40.816Z,21.14
2022-10-22T15:18:08.697Z,20.91
2022-10-22T15:20:36.637Z,20.62
2022-10-22T15:23:04.760Z,20.66
2022-10-22T15:25:32.376Z,20.89
2022-10-22T15:28:04.624Z,20.85
2022-10-22T15:30:38.314Z,20.84
2022-10-22T15:33:06.162Z,20.86
2022-10-22T15:35:34.218Z,20.88
2022-10-22T15:38:02.189Z,20.88
2022-10-22T15:40:29.830Z,20.72
2022-10-22T15:42:57.858Z,20.56
2022-10-22T15:45:25.740Z,20.43
2022-10-22T15:47:55.467Z,20.32
2022-10-22T15:50:23.111Z,20.16
2022-10-22T15:52:51.552Z,20.03
2022-10-22T15:55:19.392Z,19.92
2022-10-22T15:57:47.444Z,19.86
2022-10-22T16:00:15.949Z,19.76
2022-10-22T16:02:44.299Z,19.67
2022-10-22T16:05:13.245Z,19.57
2022-10-22T16:07:41.975Z,19.46
2022-10-22T16:10:12.668Z,19.38
2022-10-22T16:12:42.639Z,19.23
2022-10-22T16:15:11.519Z,19.11
2022-10-22T16:17:39.511Z,19.01
2022-10-22T16:20:08.034Z,18.94
2022-10-22T16:22:37.424Z,18.86
2022-10-22T16:25:05.683Z,18.80
2022-10-22T16:27:33.831Z,18.71
2022-10-22T16:30:01.447Z,18.62
2022-10-22T16:32:29.463Z,18.51
2022-10-22T16:34:57.098Z,18.42
2022-10-22T16:37:25.132Z,18.35
2022-10-22T16:39:54.098Z,18.28
2022-10-22T16:42:22.255Z,18.21
2022-10-22T16:44:49.865Z,18.11
2022-10-22T16:47:18.010Z,17.98
2022-10-22T16:49:45.650Z,17.86
2022-10-22T16:52:13.758Z,17.80
2022-10-22T16:54:41.378Z,17.72
2022-10-22T16:57:12.299Z,17.58
2022-10-22T16:59:39.934Z,17.48
2022-10-22T17:02:08.046Z,17.40
2022-10-22T17:04:35.785Z,17.30
2022-10-22T17:07:04.145Z,17.22
2022-10-22T17:09:31.798Z,17.15
2022-10-22T17:11:59.830Z,17.13
2022-10-22T17:14:28.818Z,17.06
2022-10-22T17:16:56.786Z,16.90
2022-10-22T17:19:25.072Z,16.82
2022-10-22T17:21:53.583Z,16.68
2022-10-22T17:24:21.391Z,16.60
2022-10-22T17:26:49.742Z,16.50
2022-10-22T17:29:18.070Z,16.41
2022-10-22T17:31:47.581Z,16.30
2022-10-22T17:34:17.756Z,16.26
2022-10-22T17:36:46.161Z,16.25
2022-10-22T17:39:18.578Z,16.24
2022-10-22T17:41:47.379Z,16.18
2022-10-22T17:44:16.794Z,16.10
2022-10-22T17:46:45.422Z,15.96
2022-10-22T17:49:19.648Z,15.78
2022-10-22T17:51:47.908Z,15.55
2022-10-22T17:54:15.653Z,15.44
2022-10-22T17:56:43.313Z,15.38
2022-10-22T17:59:14.122Z,15.42
2022-10-22T18:01:46.052Z,15.42
2022-10-22T18:04:18.439Z,15.39
2022-10-22T18:06:47.567Z,15.35
2022-10-22T18:09:18.716Z,15.31
2022-10-22T18:11:47.839Z,15.29
2022-10-22T18:14:15.864Z,15.27
2022-10-22T18:16:44.165Z,15.28
2022-10-22T18:19:13.469Z,15.16
2022-10-22T18:21:42.890Z,15.05
2022-10-22T18:24:11.125Z,15.17
2022-10-22T18:26:39.832Z,14.83
2022-10-22T18:29:07.747Z,14.73
2022-10-22T18:31:35.644Z,14.80
2022-10-22T18:34:03.286Z,14.84
2022-10-22T18:36:31.296Z,14.85
2022-10-22T18:39:02.414Z,14.87
2022-10-22T18:41:32.727Z,14.87
2022-10-22T18:44:02.794Z,14.87
2022-10-22T18:46:32.186Z,14.86
2022-10-22T18:49:00.231Z,14.85
2022-10-22T18:51:30.921Z,14.83
2022-10-22T18:54:05.737Z,14.83
2022-10-22T18:56:46.515Z,14.80
2022-10-22T18:59:19.178Z,14.79
2022-10-22T19:01:47.383Z,14.88
2022-10-22T19:04:15.437Z,14.92
2022-10-22T19:06:45.775Z,14.88
2022-10-22T19:09:15.677Z,14.85
2022-10-22T19:11:45.453Z,14.88
2022-10-22T19:14:13.788Z,14.83
2022-10-22T19:16:42.017Z,14.80
2022-10-22T19:19:09.978Z,14.83
2022-10-22T19:21:39.450Z,14.79
2022-10-22T19:24:07.756Z,14.79
2022-10-22T19:26:37.297Z,14.76
2022-10-22T19:29:05.402Z,14.87
2022-10-22T19:31:34.169Z,14.91
2022-10-22T19:34:04.297Z,14.93
2022-10-22T19:36:34.661Z,14.87
2022-10-22T19:39:02.796Z,14.84
2022-10-22T19:41:32.198Z,14.86
2022-10-22T19:44:01.721Z,14.73
2022-10-22T19:46:32.456Z,14.70
2022-10-22T19:49:00.502Z,14.63
2022-10-22T19:51:30.864Z,14.63
2022-10-22T19:54:00.315Z,14.49
2022-10-22T19:56:28.210Z,14.48
2022-10-22T19:58:55.933Z,14.53
2022-10-22T20:01:25.700Z,14.46
2022-10-22T20:03:54.080Z,14.45
2022-10-22T20:06:22.407Z,14.49
2022-10-22T20:08:53.761Z,14.48
2022-10-22T20:11:26.351Z,14.47
2022-10-22T20:13:54.149Z,14.38
2022-10-22T20:16:24.594Z,14.36
2022-10-22T20:18:53.779Z,14.22
2022-10-22T20:21:22.600Z,14.13
2022-10-22T20:23:54.095Z,14.12
2022-10-22T20:26:23.832Z,14.12
2022-10-22T20:28:51.649Z,14.18
2022-10-22T20:31:21.589Z,14.24
2022-10-22T20:33:50.780Z,14.38
2022-10-22T20:36:23.221Z,14.44
2022-10-22T20:38:51.727Z,14.44
2022-10-22T20:41:21.428Z,14.43
2022-10-22T20:43:51.262Z,14.42
2022-10-22T20:46:20.964Z,14.38
2022-10-22T20:48:48.686Z,14.41
2022-10-22T20:51:16.333Z,14.42
2022-10-22T20:53:45.355Z,14.34
2022-10-22T20:56:13.772Z,14.25
2022-10-22T20:58:47.578Z,14.18
2022-10-22T21:01:21.847Z,14.11
2022-10-22T21:03:50.273Z,14.09
2022-10-22T21:06:20.995Z,14.09
2022-10-22T21:08:50.442Z,14.08
2022-10-22T21:11:19.399Z,14.10
2022-10-22T21:13:47.273Z,14.12
2022-10-22T21:16:18.348Z,14.14
2022-10-22T21:18:46.466Z,14.17
2022-10-22T21:21:16.945Z,14.24
2022-10-22T21:23:44.594Z,14.26
2022-10-22T21:26:14.113Z,14.31
2022-10-22T21:28:41.726Z,14.31
2022-10-22T21:31:18.517Z,14.27
2022-10-22T21:33:46.130Z,14.26
2022-10-22T21:36:15.554Z,14.22
2022-10-22T21:38:44.919Z,14.20
2022-10-22T21:41:17.792Z,14.21
2022-10-22T21:43:46.821Z,14.17
2022-10-22T21:46:16.314Z,14.17
2022-10-22T21:48:44.342Z,14.06
2022-10-22T21:51:14.037Z,13.95
2022-10-22T21:53:42.193Z,13.94
2022-10-22T21:56:16.833Z,13.86
2022-10-22T21:58:45.401Z,13.82
2022-10-22T22:01:14.514Z,13.76
2022-10-22T22:03:43.536Z,13.71
2022-10-22T22:06:11.624Z,13.65
2022-10-22T22:08:39.860Z,13.64
2022-10-22T22:11:10.041Z,13.61
2022-10-22T22:13:40.274Z,13.60
2022-10-22T22:16:10.437Z,13.60
2022-10-22T22:18:38.833Z,13.61
2022-10-22T22:21:08.877Z,13.59
2022-10-22T22:23:38.173Z,13.56
2022-10-22T22:26:06.880Z,13.56
2022-10-22T22:28:35.644Z,13.54
2022-10-22T22:31:13.801Z,13.54
2022-10-22T22:33:41.501Z,13.50
2022-10-22T22:36:10.502Z,13.48
2022-10-22T22:38:38.443Z,13.48
2022-10-22T22:41:07.423Z,13.50
2022-10-22T22:43:35.896Z,13.51
2022-10-22T22:46:07.427Z,13.51
2022-10-22T22:48:35.602Z,13.56
2022-10-22T22:51:04.035Z,13.58
2022-10-22T22:53:31.792Z,13.52
2022-10-22T22:56:19.434Z,13.49
2022-10-22T22:58:47.414Z,13.40
2022-10-22T23:01:19.491Z,13.22
2022-10-22T23:03:49.493Z,13.15
2022-10-22T23:06:18.083Z,13.00
2022-10-22T23:08:49.321Z,13.00
2022-10-22T23:11:17.603Z,12.85
2022-10-22T23:13:45.344Z,12.72
2022-10-22T23:16:16.197Z,12.64
2022-10-22T23:18:46.474Z,12.61
2022-10-22T23:21:17.186Z,12.59
2022-10-22T23:23:45.696Z,12.64
2022-10-22T23:26:15.023Z,12.60
2022-10-22T23:28:42.677Z,12.61
2022-10-22T23:31:13.640Z,12.42
2022-10-22T23:33:41.696Z,12.35
2022-10-22T23:36:12.341Z,12.36
2022-10-22T23:38:41.440Z,12.39
2022-10-22T23:41:09.834Z,12.34
2022-10-22T23:43:38.421Z,12.31
2022-10-22T23:46:08.476Z,12.29
2022-10-22T23:48:36.371Z,12.31
2022-10-22T23:51:09.489Z,12.31
2022-10-22T23:53:39.210Z,12.33
2022-10-22T23:56:09.455Z,12.28
2022-10-22T23:58:37.623Z,12.28
